sensor_id;sensor_type;location;lat;lon;timestamp;temperature;humidity
22578;DHT22;11455;52.390;13.028;2023-03-01T00:01:20;2.00;1.00
22578;DHT22;11455;52.390;13.028;2023-03-01T00:03:46;2.00;1.00
22578;DHT22;11455;52.390;13.028;2023-03-01T00:06:12;1.90;1.00
22578;DHT22;11455;52.390;13.028;2023-03-01T00:08:38;1.90;1.00
22578;DHT22;11455;52.390;13.028;2023-03-01T00:11:08;1.90;1.00
22578;DHT22;11455;52.390;13.028;2023-03-01T00:13:35;1.90;1.00
22578;DHT22;11455;52.390;13.028;2023-03-01T00:16:05;1.90;1.00
22578;DHT22;11455;52.390;13.028;2023-03-01T00:18:34;1.90;1.00
22578;DHT22;11455;52.390;13.028;2023-03-01T00:21:02;1.90;1.00
22578;DHT22;11455;52.390;13.028;2023-03-01T00:23:28;1.90;1.00
22578;DHT22;11455;52.390;13.028;2023-03-01T00:25:54;1.90;1.00
22578;DHT22;11455;52.390;13.028;2023-03-01T00:28:20;2.00;1.00
22578;DHT22;11455;52.390;13.028;2023-03-01T00:30:49;1.90;1.00
22578;DHT22;11455;52.390;13.028;2023-03-01T00:33:14;1.90;1.00
22578;DHT22;11455;52.390;13.028;2023-03-01T00:35:43;1.80;1.00
22578;DHT22;11455;52.390;13.028;2023-03-01T00:38:09;1.80;1.00
22578;DHT22;11455;52.390;13.028;2023-03-01T00:40:35;1.70;1.00
22578;DHT22;11455;52.390;13.028;2023-03-01T00:43:01;1.80;1.00
22578;DHT22;11455;52.390;13.028;2023-03-01T00:45:27;1.90;1.00
22578;DHT22;11455;52.390;13.028;2023-03-01T00:47:55;2.00;1.00
22578;DHT22;11455;52.390;13.028;2023-03-01T00:50:20;2.00;1.00
22578;DHT22;11455;52.390;13.028;2023-03-01T00:52:46;1.90;1.00
22578;DHT22;11455;52.390;13.028;2023-03-01T00:55:12;1.80;1.00
22578;DHT22;11455;52.390;13.028;2023-03-01T00:57:39;1.90;1.00
22578;DHT22;11455;52.390;13.028;2023-03-01T01:00:05;1.80;1.00
22578;DHT22;11455;52.390;13.028;2023-03-01T01:02:34;1.90;1.00
22578;DHT22;11455;52.390;13.028;2023-03-01T01:05:00;1.90;1.00
22578;DHT22;11455;52.390;13.028;2023-03-01T01:07:25;1.80;1.00
22578;DHT22;11455;52.390;13.028;2023-03-01T01:09:51;1.70;1.00
22578;DHT22;11455;52.390;13.028;2023-03-01T01:12:16;1.60;1.00
22578;DHT22;11455;52.390;13.028;2023-03-01T01:14:44;1.60;1.00
22578;DHT22;11455;52.390;13.028;2023-03-01T01:17:12;1.60;1.00
22578;DHT22;11455;52.390;13.028;2023-03-01T01:19:39;1.50;1.00
22578;DHT22;11455;52.390;13.028;2023-03-01T01:22:05;1.50;1.00
22578;DHT22;11455;52.390;13.028;2023-03-01T01:24:31;1.50;1.00
22578;DHT22;11455;52.390;13.028;2023-03-01T01:26:56;1.40;1.00
22578;DHT22;11455;52.390;13.028;2023-03-01T01:29:22;1.40;1.00
22578;DHT22;11455;52.390;13.028;2023-03-01T01:31:48;1.30;1.00
22578;DHT22;11455;52.390;13.028;2023-03-01T01:34:18;1.40;1.00
22578;DHT22;11455;52.390;13.028;2023-03-01T01:36:43;1.40;1.00
22578;DHT22;11455;52.390;13.028;2023-03-01T01:39:09;1.40;1.00
22578;DHT22;11455;52.390;13.028;2023-03-01T01:41:39;1.40;1.00
22578;DHT22;11455;52.390;13.028;2023-03-01T01:44:12;1.50;1.00
22578;DHT22;11455;52.390;13.028;2023-03-01T01:46:57;1.50;1.00
22578;DHT22;11455;52.390;13.028;2023-03-01T01:51:50;1.80;1.00
22578;DHT22;11455;52.390;13.028;2023-03-01T01:54:21;1.90;1.00
22578;DHT22;11455;52.390;13.028;2023-03-01T01:56:51;1.90;1.00
22578;DHT22;11455;52.390;13.028;2023-03-01T01:59:18;1.90;1.00
22578;DHT22;11455;52.390;13.028;2023-03-01T02:01:44;1.90;1.00
22578;DHT22;11455;52.390;13.028;2023-03-01T02:04:10;1.90;1.00
22578;DHT22;11455;52.390;13.028;2023-03-01T02:06:37;1.90;1.00
22578;DHT22;11455;52.390;13.028;2023-03-01T02:09:05;1.90;1.00
22578;DHT22;11455;52.390;13.028;2023-03-01T02:11:33;1.90;1.00
22578;DHT22;11455;52.390;13.028;2023-03-01T02:13:59;1.90;1.00
22578;DHT22;11455;52.390;13.028;2023-03-01T02:16:25;1.90;1.00
22578;DHT22;11455;52.390;13.028;2023-03-01T02:18:51;1.80;1.00
22578;DHT22;11455;52.390;13.028;2023-03-01T02:21:24;1.70;1.00
22578;DHT22;11455;52.390;13.028;2023-03-01T02:23:53;1.60;1.00
22578;DHT22;11455;52.390;13.028;2023-03-01T02:26:20;1.70;1.00
22578;DHT22;11455;52.390;13.028;2023-03-01T02:28:49;1.60;1.00
22578;DHT22;11455;52.390;13.028;2023-03-01T02:31:17;1.50;1.00
22578;DHT22;11455;52.390;13.028;2023-03-01T02:34:02;1.40;1.00
22578;DHT22;11455;52.390;13.028;2023-03-01T02:36:36;1.30;1.00
22578;DHT22;11455;52.390;13.028;2023-03-01T02:39:04;1.40;1.00
22578;DHT22;11455;52.390;13.028;2023-03-01T02:41:33;1.40;1.00
22578;DHT22;11455;52.390;13.028;2023-03-01T02:43:59;1.30;1.00
22578;DHT22;11455;52.390;13.028;2023-03-01T02:46:25;1.30;1.00
22578;DHT22;11455;52.390;13.028;2023-03-01T02:48:52;1.20;1.00
22578;DHT22;11455;52.390;13.028;2023-03-01T02:56:31;1.20;1.00
22578;DHT22;11455;52.390;13.028;2023-03-01T02:58:57;1.30;1.00
22578;DHT22;11455;52.390;13.028;2023-03-01T03:01:27;1.30;1.00
22578;DHT22;11455;52.390;13.028;2023-03-01T03:04:06;1.30;1.00
22578;DHT22;11455;52.390;13.028;2023-03-01T03:06:32;1.30;1.00
22578;DHT22;11455;52.390;13.028;2023-03-01T03:09:01;1.10;1.00
22578;DHT22;11455;52.390;13.028;2023-03-01T03:11:30;1.10;1.00
22578;DHT22;11455;52.390;13.028;2023-03-01T03:13:56;1.10;1.00
22578;DHT22;11455;52.390;13.028;2023-03-01T03:16:23;1.00;1.00
22578;DHT22;11455;52.390;13.028;2023-03-01T03:18:50;1.10;1.00
22578;DHT22;11455;52.390;13.028;2023-03-01T03:21:18;1.10;1.00
22578;DHT22;11455;52.390;13.028;2023-03-01T03:23:46;1.10;1.00
22578;DHT22;11455;52.390;13.028;2023-03-01T03:26:14;1.00;1.00
22578;DHT22;11455;52.390;13.028;2023-03-01T03:28:40;0.90;1.00
22578;DHT22;11455;52.390;13.028;2023-03-01T03:31:06;0.90;1.00
22578;DHT22;11455;52.390;13.028;2023-03-01T03:33:32;0.90;1.00
22578;DHT22;11455;52.390;13.028;2023-03-01T03:35:58;0.80;1.00
22578;DHT22;11455;52.390;13.028;2023-03-01T03:38:23;0.70;1.00
22578;DHT22;11455;52.390;13.028;2023-03-01T03:40:59;0.70;1.00
22578;DHT22;11455;52.390;13.028;2023-03-01T03:43:28;0.60;1.00
22578;DHT22;11455;52.390;13.028;2023-03-01T03:45:54;0.60;1.00
22578;DHT22;11455;52.390;13.028;2023-03-01T03:48:19;0.60;1.00
22578;DHT22;11455;52.390;13.028;2023-03-01T03:50:49;0.60;1.00
22578;DHT22;11455;52.390;13.028;2023-03-01T03:53:15;0.70;1.00
22578;DHT22;11455;52.390;13.028;2023-03-01T03:55:41;0.70;1.00
22578;DHT22;11455;52.390;13.028;2023-03-01T03:58:09;0.70;1.00
22578;DHT22;11455;52.390;13.028;2023-03-01T04:00:41;0.80;1.00
22578;DHT22;11455;52.390;13.028;2023-03-01T04:03:08;0.80;1.00
22578;DHT22;11455;52.390;13.028;2023-03-01T04:05:34;0.90;1.00
22578;DHT22;11455;52.390;13.028;2023-03-01T04:08:00;0.90;1.00
22578;DHT22;11455;52.390;13.028;2023-03-01T04:10:39;1.00;1.00
22578;DHT22;11455;52.390;13.028;2023-03-01T04:13:06;1.10;1.00
22578;DHT22;11455;52.390;13.028;2023-03-01T04:15:32;1.20;1.00
22578;DHT22;11455;52.390;13.028;2023-03-01T04:17:58;1.20;1.00
22578;DHT22;11455;52.390;13.028;2023-03-01T04:20:25;1.20;1.00
22578;DHT22;11455;52.390;13.028;2023-03-01T04:22:58;1.30;1.00
22578;DHT22;11455;52.390;13.028;2023-03-01T04:25:24;1.30;1.00
22578;DHT22;11455;52.390;13.028;2023-03-01T04:27:51;1.30;1.00
22578;DHT22;11455;52.390;13.028;2023-03-01T04:30:17;1.20;1.00
22578;DHT22;11455;52.390;13.028;2023-03-01T04:32:43;1.10;1.00
22578;DHT22;11455;52.390;13.028;2023-03-01T04:35:08;1.10;1.00
22578;DHT22;11455;52.390;13.028;2023-03-01T04:37:34;1.00;1.00
22578;DHT22;11455;52.390;13.028;2023-03-01T04:40:00;1.00;1.00
22578;DHT22;11455;52.390;13.028;2023-03-01T04:42:26;0.90;1.00
22578;DHT22;11455;52.390;13.028;2023-03-01T04:44:52;0.90;1.00
22578;DHT22;11455;52.390;13.028;2023-03-01T04:47:17;0.90;1.00
22578;DHT22;11455;52.390;13.028;2023-03-01T04:49:43;0.90;1.00
22578;DHT22;11455;52.390;13.028;2023-03-01T04:52:09;1.10;1.00
22578;DHT22;11455;52.390;13.028;2023-03-01T04:54:35;1.10;1.00
22578;DHT22;11455;52.390;13.028;2023-03-01T04:57:03;1.10;1.00
22578;DHT22;11455;52.390;13.028;2023-03-01T04:59:28;1.00;1.00
22578;DHT22;11455;52.390;13.028;2023-03-01T05:01:55;1.10;1.00
22578;DHT22;11455;52.390;13.028;2023-03-01T05:04:24;1.10;10.40
22578;DHT22;11455;52.390;13.028;2023-03-01T05:06:50;1.10;1.00
22578;DHT22;11455;52.390;13.028;2023-03-01T05:09:15;1.10;1.00
22578;DHT22;11455;52.390;13.028;2023-03-01T05:11:41;0.90;1.00
22578;DHT22;11455;52.390;13.028;2023-03-01T05:14:09;0.80;1.00
22578;DHT22;11455;52.390;13.028;2023-03-01T05:16:35;0.70;1.00
22578;DHT22;11455;52.390;13.028;2023-03-01T05:19:03;0.60;1.00
22578;DHT22;11455;52.390;13.028;2023-03-01T05:21:39;0.50;1.00
22578;DHT22;11455;52.390;13.028;2023-03-01T05:24:25;0.40;1.00
22578;DHT22;11455;52.390;13.028;2023-03-01T05:26:50;0.40;1.00
22578;DHT22;11455;52.390;13.028;2023-03-01T05:29:23;0.40;1.00
22578;DHT22;11455;52.390;13.028;2023-03-01T05:31:55;0.40;1.00
22578;DHT22;11455;52.390;13.028;2023-03-01T05:34:28;0.30;1.00
22578;DHT22;11455;52.390;13.028;2023-03-01T05:36:54;0.30;1.00
22578;DHT22;11455;52.390;13.028;2023-03-01T05:39:20;0.30;1.00
22578;DHT22;11455;52.390;13.028;2023-03-01T05:41:48;0.20;1.00
22578;DHT22;11455;52.390;13.028;2023-03-01T05:44:14;0.20;1.00
22578;DHT22;11455;52.390;13.028;2023-03-01T05:46:39;0.30;1.00
22578;DHT22;11455;52.390;13.028;2023-03-01T05:49:05;0.30;1.00
22578;DHT22;11455;52.390;13.028;2023-03-01T05:51:31;0.30;1.00
22578;DHT22;11455;52.390;13.028;2023-03-01T05:53:57;0.30;1.00
22578;DHT22;11455;52.390;13.028;2023-03-01T05:56:23;0.30;1.00
22578;DHT22;11455;52.390;13.028;2023-03-01T05:58:49;0.30;1.00
22578;DHT22;11455;52.390;13.028;2023-03-01T06:01:16;0.30;1.00
22578;DHT22;11455;52.390;13.028;2023-03-01T06:03:42;0.20;1.00
22578;DHT22;11455;52.390;13.028;2023-03-01T06:06:08;0.20;1.00
22578;DHT22;11455;52.390;13.028;2023-03-01T06:08:34;0.20;1.00
22578;DHT22;11455;52.390;13.028;2023-03-01T06:10:59;0.30;1.00
22578;DHT22;11455;52.390;13.028;2023-03-01T06:13:25;0.30;1.00
22578;DHT22;11455;52.390;13.028;2023-03-01T06:15:51;0.30;1.00
22578;DHT22;11455;52.390;13.028;2023-03-01T06:18:19;0.30;1.00
22578;DHT22;11455;52.390;13.028;2023-03-01T06:20:44;0.30;1.00
22578;DHT22;11455;52.390;13.028;2023-03-01T06:23:12;0.20;1.00
22578;DHT22;11455;52.390;13.028;2023-03-01T06:25:41;0.20;1.00
22578;DHT22;11455;52.390;13.028;2023-03-01T06:28:06;0.20;1.00
22578;DHT22;11455;52.390;13.028;2023-03-01T06:30:32;0.20;1.00
22578;DHT22;11455;52.390;13.028;2023-03-01T06:32:58;0.20;1.00
22578;DHT22;11455;52.390;13.028;2023-03-01T06:35:26;0.30;1.00
22578;DHT22;11455;52.390;13.028;2023-03-01T06:37:55;0.30;1.00
22578;DHT22;11455;52.390;13.028;2023-03-01T06:40:20;0.30;1.00
22578;DHT22;11455;52.390;13.028;2023-03-01T06:42:48;0.30;1.00
22578;DHT22;11455;52.390;13.028;2023-03-01T06:45:20;0.30;1.00
22578;DHT22;11455;52.390;13.028;2023-03-01T06:47:46;0.40;1.00
22578;DHT22;11455;52.390;13.028;2023-03-01T06:50:11;0.40;1.00
22578;DHT22;11455;52.390;13.028;2023-03-01T06:52:38;0.50;1.00
22578;DHT22;11455;52.390;13.028;2023-03-01T06:55:03;0.50;1.00
22578;DHT22;11455;52.390;13.028;2023-03-01T06:57:29;0.60;1.00
22578;DHT22;11455;52.390;13.028;2023-03-01T06:59:55;0.60;1.00
22578;DHT22;11455;52.390;13.028;2023-03-01T07:02:21;0.70;1.00
22578;DHT22;11455;52.390;13.028;2023-03-01T07:04:48;0.70;2.40
22578;DHT22;11455;52.390;13.028;2023-03-01T07:07:14;0.90;5.90
22578;DHT22;11455;52.390;13.028;2023-03-01T07:09:39;1.00;1.00
22578;DHT22;11455;52.390;13.028;2023-03-01T07:12:05;1.10;1.00
22578;DHT22;11455;52.390;13.028;2023-03-01T07:14:31;1.10;1.00
22578;DHT22;11455;52.390;13.028;2023-03-01T07:16:56;1.10;1.00
22578;DHT22;11455;52.390;13.028;2023-03-01T07:19:22;1.10;1.00
22578;DHT22;11455;52.390;13.028;2023-03-01T07:21:48;1.10;12.20
22578;DHT22;11455;52.390;13.028;2023-03-01T07:24:14;1.10;8.10
22578;DHT22;11455;52.390;13.028;2023-03-01T07:26:40;1.20;16.30
22578;DHT22;11455;52.390;13.028;2023-03-01T07:29:06;1.20;27.70
22578;DHT22;11455;52.390;13.028;2023-03-01T07:31:32;1.20;55.20
22578;DHT22;11455;52.390;13.028;2023-03-01T07:33:58;1.30;52.50
22578;DHT22;11455;52.390;13.028;2023-03-01T07:36:23;1.30;96.30
22578;DHT22;11455;52.390;13.028;2023-03-01T07:38:49;1.40;97.90
22578;DHT22;11455;52.390;13.028;2023-03-01T07:41:15;1.40;92.10
22578;DHT22;11455;52.390;13.028;2023-03-01T07:43:41;1.40;79.60
22578;DHT22;11455;52.390;13.028;2023-03-01T07:46:06;1.50;90.20
22578;DHT22;11455;52.390;13.028;2023-03-01T07:48:32;1.70;81.60
22578;DHT22;11455;52.390;13.028;2023-03-01T07:51:02;1.80;79.20
22578;DHT22;11455;52.390;13.028;2023-03-01T07:53:28;1.80;80.80
22578;DHT22;11455;52.390;13.028;2023-03-01T07:56:27;1.90;76.90
22578;DHT22;11455;52.390;13.028;2023-03-01T07:58:47;1.90;71.90
22578;DHT22;11455;52.390;13.028;2023-03-01T08:01:14;2.00;65.30
22578;DHT22;11455;52.390;13.028;2023-03-01T08:03:40;2.10;66.20
22578;DHT22;11455;52.390;13.028;2023-03-01T08:06:07;2.20;44.10
22578;DHT22;11455;52.390;13.028;2023-03-01T08:08:33;2.30;26.30
22578;DHT22;11455;52.390;13.028;2023-03-01T08:10:59;2.30;19.40
22578;DHT22;11455;52.390;13.028;2023-03-01T08:13:25;2.50;12.20
22578;DHT22;11455;52.390;13.028;2023-03-01T08:15:51;2.50;4.30
22578;DHT22;11455;52.390;13.028;2023-03-01T08:18:18;2.60;1.00
22578;DHT22;11455;52.390;13.028;2023-03-01T08:20:44;2.60;1.00
22578;DHT22;11455;52.390;13.028;2023-03-01T08:23:09;2.70;1.00
22578;DHT22;11455;52.390;13.028;2023-03-01T08:25:35;2.70;1.00
22578;DHT22;11455;52.390;13.028;2023-03-01T08:28:00;2.80;1.00
22578;DHT22;11455;52.390;13.028;2023-03-01T08:30:26;2.90;1.00
22578;DHT22;11455;52.390;13.028;2023-03-01T08:32:52;2.90;1.00
22578;DHT22;11455;52.390;13.028;2023-03-01T08:35:17;3.00;1.00
22578;DHT22;11455;52.390;13.028;2023-03-01T08:37:47;3.10;1.00
22578;DHT22;11455;52.390;13.028;2023-03-01T08:40:13;3.20;1.00
22578;DHT22;11455;52.390;13.028;2023-03-01T08:42:41;3.40;1.00
22578;DHT22;11455;52.390;13.028;2023-03-01T08:45:10;3.50;1.00
22578;DHT22;11455;52.390;13.028;2023-03-01T08:47:36;3.60;1.00
22578;DHT22;11455;52.390;13.028;2023-03-01T08:50:02;3.60;1.00
22578;DHT22;11455;52.390;13.028;2023-03-01T08:52:32;3.70;1.00
22578;DHT22;11455;52.390;13.028;2023-03-01T08:54:57;3.70;1.00
22578;DHT22;11455;52.390;13.028;2023-03-01T08:57:23;3.80;1.00
22578;DHT22;11455;52.390;13.028;2023-03-01T08:59:48;3.90;1.00
22578;DHT22;11455;52.390;13.028;2023-03-01T09:02:17;4.00;1.00
22578;DHT22;11455;52.390;13.028;2023-03-01T09:04:43;4.10;1.00
22578;DHT22;11455;52.390;13.028;2023-03-01T09:07:09;4.20;1.00
22578;DHT22;11455;52.390;13.028;2023-03-01T09:09:35;4.20;1.00
22578;DHT22;11455;52.390;13.028;2023-03-01T09:12:01;4.30;1.00
22578;DHT22;11455;52.390;13.028;2023-03-01T09:14:29;4.30;1.00
22578;DHT22;11455;52.390;13.028;2023-03-01T09:16:55;4.50;1.00
22578;DHT22;11455;52.390;13.028;2023-03-01T09:19:23;4.50;1.00
22578;DHT22;11455;52.390;13.028;2023-03-01T09:21:49;4.60;1.00
22578;DHT22;11455;52.390;13.028;2023-03-01T09:24:21;4.60;1.00
22578;DHT22;11455;52.390;13.028;2023-03-01T09:26:47;4.70;1.00
22578;DHT22;11455;52.390;13.028;2023-03-01T09:29:13;4.70;1.00
22578;DHT22;11455;52.390;13.028;2023-03-01T09:31:39;4.80;1.00
22578;DHT22;11455;52.390;13.028;2023-03-01T09:34:08;4.90;1.00
22578;DHT22;11455;52.390;13.028;2023-03-01T09:36:36;5.00;1.00
22578;DHT22;11455;52.390;13.028;2023-03-01T09:39:02;5.10;1.00
22578;DHT22;11455;52.390;13.028;2023-03-01T09:46:44;5.30;1.00
22578;DHT22;11455;52.390;13.028;2023-03-01T09:49:12;5.40;1.00
22578;DHT22;11455;52.390;13.028;2023-03-01T09:51:39;5.40;1.00
22578;DHT22;11455;52.390;13.028;2023-03-01T09:54:05;5.50;1.00
22578;DHT22;11455;52.390;13.028;2023-03-01T09:56:36;5.60;1.00
22578;DHT22;11455;52.390;13.028;2023-03-01T10:01:35;5.70;1.00
22578;DHT22;11455;52.390;13.028;2023-03-01T10:04:23;5.80;1.00
22578;DHT22;11455;52.390;13.028;2023-03-01T10:06:56;5.90;1.00
22578;DHT22;11455;52.390;13.028;2023-03-01T10:09:23;5.90;1.00
22578;DHT22;11455;52.390;13.028;2023-03-01T10:11:50;6.00;1.00
22578;DHT22;11455;52.390;13.028;2023-03-01T10:19:41;6.20;1.00
22578;DHT22;11455;52.390;13.028;2023-03-01T10:22:09;6.30;1.00
22578;DHT22;11455;52.390;13.028;2023-03-01T10:24:36;6.30;1.00
22578;DHT22;11455;52.390;13.028;2023-03-01T10:27:22;6.40;1.00
22578;DHT22;11455;52.390;13.028;2023-03-01T10:32:20;6.40;1.00
22578;DHT22;11455;52.390;13.028;2023-03-01T10:34:47;6.40;1.00
22578;DHT22;11455;52.390;13.028;2023-03-01T10:37:13;6.40;1.00
22578;DHT22;11455;52.390;13.028;2023-03-01T10:44:53;6.40;1.00
22578;DHT22;11455;52.390;13.028;2023-03-01T10:47:20;6.30;1.00
22578;DHT22;11455;52.390;13.028;2023-03-01T10:52:21;6.30;1.00
22578;DHT22;11455;52.390;13.028;2023-03-01T10:54:54;6.20;1.00
22578;DHT22;11455;52.390;13.028;2023-03-01T11:02:40;6.10;1.00
22578;DHT22;11455;52.390;13.028;2023-03-01T11:07:47;6.20;1.00
22578;DHT22;11455;52.390;13.028;2023-03-01T11:10:20;6.30;1.00
22578;DHT22;11455;52.390;13.028;2023-03-01T11:12:46;6.30;1.00
22578;DHT22;11455;52.390;13.028;2023-03-01T11:15:30;6.20;1.00
22578;DHT22;11455;52.390;13.028;2023-03-01T11:17:56;6.40;1.00
22578;DHT22;11455;52.390;13.028;2023-03-01T11:25:17;6.80;1.00
22578;DHT22;11455;52.390;13.028;2023-03-01T11:27:44;6.80;1.00
22578;DHT22;11455;52.390;13.028;2023-03-01T11:33:02;6.80;1.00
22578;DHT22;11455;52.390;13.028;2023-03-01T11:35:30;6.80;1.00
22578;DHT22;11455;52.390;13.028;2023-03-01T11:40:41;6.80;1.00
22578;DHT22;11455;52.390;13.028;2023-03-01T11:51:01;6.90;1.00
22578;DHT22;11455;52.390;13.028;2023-03-01T11:53:30;7.10;1.00
22578;DHT22;11455;52.390;13.028;2023-03-01T11:56:16;7.30;1.00
22578;DHT22;11455;52.390;13.028;2023-03-01T12:01:26;7.50;1.00
22578;DHT22;11455;52.390;13.028;2023-03-01T12:10:14;7.80;1.00
22578;DHT22;11455;52.390;13.028;2023-03-01T12:25:14;8.40;1.00
22578;DHT22;11455;52.390;13.028;2023-03-01T12:27:54;8.50;1.00
22578;DHT22;11455;52.390;13.028;2023-03-01T12:47:05;9.40;1.00
22578;DHT22;11455;52.390;13.028;2023-03-01T12:51:28;9.40;1.00
22578;DHT22;11455;52.390;13.028;2023-03-01T12:53:55;9.50;1.00
22578;DHT22;11455;52.390;13.028;2023-03-01T12:56:28;9.70;1.00
22578;DHT22;11455;52.390;13.028;2023-03-01T13:04:06;9.90;1.00
22578;DHT22;11455;52.390;13.028;2023-03-01T13:09:12;9.80;1.00
22578;DHT22;11455;52.390;13.028;2023-03-01T13:11:44;10.00;1.00
22578;DHT22;11455;52.390;13.028;2023-03-01T13:16:51;10.30;1.00
22578;DHT22;11455;52.390;13.028;2023-03-01T13:19:18;10.40;1.00
22578;DHT22;11455;52.390;13.028;2023-03-01T13:21:45;10.50;1.00
22578;DHT22;11455;52.390;13.028;2023-03-01T13:29:55;10.80;1.00
22578;DHT22;11455;52.390;13.028;2023-03-01T13:32:21;10.80;1.00
22578;DHT22;11455;52.390;13.028;2023-03-01T13:34:47;10.80;1.00
22578;DHT22;11455;52.390;13.028;2023-03-01T13:37:21;10.90;1.00
22578;DHT22;11455;52.390;13.028;2023-03-01T13:39:47;10.70;1.00
22578;DHT22;11455;52.390;13.028;2023-03-01T13:44:58;10.80;1.00
22578;DHT22;11455;52.390;13.028;2023-03-01T13:47:24;10.60;1.00
22578;DHT22;11455;52.390;13.028;2023-03-01T13:50:02;10.50;1.00
22578;DHT22;11455;52.390;13.028;2023-03-01T13:54:56;10.70;1.00
22578;DHT22;11455;52.390;13.028;2023-03-01T13:57:24;10.70;1.00
22578;DHT22;11455;52.390;13.028;2023-03-01T13:59:51;10.50;1.00
22578;DHT22;11455;52.390;13.028;2023-03-01T14:02:17;10.60;1.00
22578;DHT22;11455;52.390;13.028;2023-03-01T14:04:43;10.60;1.00
22578;DHT22;11455;52.390;13.028;2023-03-01T14:07:18;10.70;1.00
22578;DHT22;11455;52.390;13.028;2023-03-01T14:09:45;10.90;1.00
22578;DHT22;11455;52.390;13.028;2023-03-01T14:15:10;11.00;1.00
22578;DHT22;11455;52.390;13.028;2023-03-01T14:20:19;10.90;1.00
22578;DHT22;11455;52.390;13.028;2023-03-01T14:22:46;11.00;1.00
22578;DHT22;11455;52.390;13.028;2023-03-01T14:27:51;11.00;1.00
22578;DHT22;11455;52.390;13.028;2023-03-01T14:30:21;10.90;1.00
22578;DHT22;11455;52.390;13.028;2023-03-01T14:32:57;10.90;1.00
22578;DHT22;11455;52.390;13.028;2023-03-01T14:35:24;10.90;1.00
22578;DHT22;11455;52.390;13.028;2023-03-01T14:37:50;11.00;1.00
22578;DHT22;11455;52.390;13.028;2023-03-01T14:40:21;11.20;1.00
22578;DHT22;11455;52.390;13.028;2023-03-01T14:42:50;11.30;1.00
22578;DHT22;11455;52.390;13.028;2023-03-01T14:45:19;11.40;1.00
22578;DHT22;11455;52.390;13.028;2023-03-01T14:47:45;11.30;1.00
22578;DHT22;11455;52.390;13.028;2023-03-01T14:50:28;11.10;1.00
22578;DHT22;11455;52.390;13.028;2023-03-01T14:52:58;11.10;1.00
22578;DHT22;11455;52.390;13.028;2023-03-01T14:55:35;11.10;1.00
22578;DHT22;11455;52.390;13.028;2023-03-01T14:58:05;11.10;1.00
22578;DHT22;11455;52.390;13.028;2023-03-01T15:00:31;11.20;1.00
22578;DHT22;11455;52.390;13.028;2023-03-01T15:03:04;11.30;1.00
22578;DHT22;11455;52.390;13.028;2023-03-01T15:05:38;11.40;1.00
22578;DHT22;11455;52.390;13.028;2023-03-01T15:08:04;11.60;1.00
22578;DHT22;11455;52.390;13.028;2023-03-01T15:10:34;11.50;1.00
22578;DHT22;11455;52.390;13.028;2023-03-01T15:13:10;11.60;1.00
22578;DHT22;11455;52.390;13.028;2023-03-01T15:15:45;11.60;1.00
22578;DHT22;11455;52.390;13.028;2023-03-01T15:20:40;11.40;1.00
22578;DHT22;11455;52.390;13.028;2023-03-01T15:23:12;11.30;1.00
22578;DHT22;11455;52.390;13.028;2023-03-01T15:25:45;11.00;1.00
22578;DHT22;11455;52.390;13.028;2023-03-01T15:28:18;11.00;1.00
22578;DHT22;11455;52.390;13.028;2023-03-01T15:30:45;11.10;1.00
22578;DHT22;11455;52.390;13.028;2023-03-01T15:35:57;10.90;1.00
22578;DHT22;11455;52.390;13.028;2023-03-01T15:38:24;10.80;1.00
22578;DHT22;11455;52.390;13.028;2023-03-01T15:40:50;10.80;1.00
22578;DHT22;11455;52.390;13.028;2023-03-01T15:46:00;10.50;1.00
22578;DHT22;11455;52.390;13.028;2023-03-01T15:48:26;10.20;1.00
22578;DHT22;11455;52.390;13.028;2023-03-01T15:50:56;10.00;1.00
22578;DHT22;11455;52.390;13.028;2023-03-01T15:53:26;9.80;1.00
22578;DHT22;11455;52.390;13.028;2023-03-01T15:55:53;9.70;1.00
22578;DHT22;11455;52.390;13.028;2023-03-01T15:58:20;9.60;1.00
22578;DHT22;11455;52.390;13.028;2023-03-01T16:00:46;9.50;1.00
22578;DHT22;11455;52.390;13.028;2023-03-01T16:03:14;9.40;1.00
22578;DHT22;11455;52.390;13.028;2023-03-01T16:05:40;9.40;1.00
22578;DHT22;11455;52.390;13.028;2023-03-01T16:08:06;9.30;1.00
22578;DHT22;11455;52.390;13.028;2023-03-01T16:10:32;9.30;1.00
22578;DHT22;11455;52.390;13.028;2023-03-01T16:12:58;9.20;1.00
22578;DHT22;11455;52.390;13.028;2023-03-01T16:15:29;9.20;1.00
22578;DHT22;11455;52.390;13.028;2023-03-01T16:17:55;9.10;1.00
22578;DHT22;11455;52.390;13.028;2023-03-01T16:20:23;9.10;1.00
22578;DHT22;11455;52.390;13.028;2023-03-01T16:22:49;9.00;1.00
22578;DHT22;11455;52.390;13.028;2023-03-01T16:25:16;9.00;1.00
22578;DHT22;11455;52.390;13.028;2023-03-01T16:27:43;9.00;1.00
22578;DHT22;11455;52.390;13.028;2023-03-01T16:30:09;8.90;1.00
22578;DHT22;11455;52.390;13.028;2023-03-01T16:32:38;8.90;1.00
22578;DHT22;11455;52.390;13.028;2023-03-01T16:35:05;8.90;1.00
22578;DHT22;11455;52.390;13.028;2023-03-01T16:37:31;8.80;1.00
22578;DHT22;11455;52.390;13.028;2023-03-01T16:39:57;8.70;1.00
22578;DHT22;11455;52.390;13.028;2023-03-01T16:42:22;8.70;1.00
22578;DHT22;11455;52.390;13.028;2023-03-01T16:44:49;8.70;1.00
22578;DHT22;11455;52.390;13.028;2023-03-01T16:47:20;8.70;1.00
22578;DHT22;11455;52.390;13.028;2023-03-01T16:49:45;8.70;1.00
22578;DHT22;11455;52.390;13.028;2023-03-01T16:52:11;8.60;1.00
22578;DHT22;11455;52.390;13.028;2023-03-01T16:54:36;8.60;1.00
22578;DHT22;11455;52.390;13.028;2023-03-01T16:57:02;8.60;1.00
22578;DHT22;11455;52.390;13.028;2023-03-01T16:59:28;8.50;1.00
22578;DHT22;11455;52.390;13.028;2023-03-01T17:01:54;8.50;1.00
22578;DHT22;11455;52.390;13.028;2023-03-01T17:04:19;8.50;1.00
22578;DHT22;11455;52.390;13.028;2023-03-01T17:06:45;8.40;1.00
22578;DHT22;11455;52.390;13.028;2023-03-01T17:09:12;8.40;1.00
22578;DHT22;11455;52.390;13.028;2023-03-01T17:11:42;8.30;1.00
22578;DHT22;11455;52.390;13.028;2023-03-01T17:14:07;8.30;1.00
22578;DHT22;11455;52.390;13.028;2023-03-01T17:16:39;8.30;1.00
22578;DHT22;11455;52.390;13.028;2023-03-01T17:19:05;8.30;1.00
22578;DHT22;11455;52.390;13.028;2023-03-01T17:21:30;8.30;1.00
22578;DHT22;11455;52.390;13.028;2023-03-01T17:24:01;8.20;1.00
22578;DHT22;11455;52.390;13.028;2023-03-01T17:26:27;8.20;1.00
22578;DHT22;11455;52.390;13.028;2023-03-01T17:28:54;8.20;1.00
22578;DHT22;11455;52.390;13.028;2023-03-01T17:31:19;8.20;1.00
22578;DHT22;11455;52.390;13.028;2023-03-01T17:33:45;8.20;1.00
22578;DHT22;11455;52.390;13.028;2023-03-01T17:36:11;8.10;1.00
22578;DHT22;11455;52.390;13.028;2023-03-01T17:38:37;8.10;1.00
22578;DHT22;11455;52.390;13.028;2023-03-01T17:41:03;8.10;1.00
22578;DHT22;11455;52.390;13.028;2023-03-01T17:43:29;8.00;1.00
22578;DHT22;11455;52.390;13.028;2023-03-01T17:45:55;8.00;1.00
22578;DHT22;11455;52.390;13.028;2023-03-01T17:48:21;7.90;1.00
22578;DHT22;11455;52.390;13.028;2023-03-01T17:50:47;7.90;1.00
22578;DHT22;11455;52.390;13.028;2023-03-01T17:53:13;7.90;1.00
22578;DHT22;11455;52.390;13.028;2023-03-01T17:55:40;7.80;1.00
22578;DHT22;11455;52.390;13.028;2023-03-01T17:58:06;7.70;1.00
22578;DHT22;11455;52.390;13.028;2023-03-01T18:00:33;7.70;1.00